Darstellungsparameter: Aktuell verwendete Einstellungen:
Skalierung der Graphiken ... ?
xyx+y,   Skalierungsfaktor:      Skalierung: Modus: x, Faktor: 1
Darstellungszeitraum ... ?
Vom - - bis: - -   Zeitraum: 28.08.2020 - 28.08.2020
Min/Max/Avg-Anzeige ... ?
Zeige MMA aktuell
Zeige MMA Monat
Zeige MMA alles
Zeige --A aktuell
Zeige --A Monat
Zeige --A alles
Keine MMA-Anzeige
MMA:
Keine MMA-Graphiken
MMA-Basis: 28.08.2020 - 28.08.2020
Quicknavigation für Darstellung... ?
Tage:      1T, 2T, 3T, 5T -1T -2T -3T -5T +1T +2T +3T +5T
Wochen: 1W, 2W, 3W -1W -2W -3W +1W +2W +3W
Monate: 1M, 3M, 6M -1M -3M -6M +1M +3M +6M
Jahre:    1J, 3J, 5J, 10J -1J -3J -5J -10J +1J +3J +5J +10J
Nutze für die Darstellung ... ?
Originaldaten oder Mittelwerte auf ...
Stundenbasis Tagesbasis Wochenbasis
Monatsbasis Jahresbasis      Datenbasis: Original-Daten
Darstellen als:
Statistik (Auto) Statistik J:M      Darstellung:
Zur Graphik,    zurück zur Übersicht aller Sensoren.
 
Tabellarische Datenbersicht: ?
 
Sensor: Nr:Datum:Temp:Feuchte:Taupunkt:
Aussen-T/F 1 28-08-2020 00:00:00 16.7 C 83 % 13.8 C
2 28-08-2020 00:05:00 16.6 C 83 % 13.7 C
3 28-08-2020 00:10:00 16.5 C 84 % 13.79 C
4 28-08-2020 00:15:00 16.4 C 83 % 13.51 C
5 28-08-2020 00:20:00 16.4 C 84 % 13.69 C
6 28-08-2020 00:25:00 16.4 C 84 % 13.69 C
7 28-08-2020 00:30:00 16.4 C 84 % 13.69 C
8 28-08-2020 00:35:00 16.4 C 84 % 13.69 C
9 28-08-2020 00:40:00 16.4 C 83 % 13.51 C
10 28-08-2020 00:45:00 16.4 C 82 % 13.32 C
11 28-08-2020 00:50:00 16.4 C 82 % 13.32 C
12 28-08-2020 00:55:00 16.4 C 82 % 13.32 C
13 28-08-2020 01:00:00 16.4 C 82 % 13.32 C
14 28-08-2020 01:05:00 16.6 C 83 % 13.7 C
15 28-08-2020 01:10:00 16.6 C 82 % 13.52 C
16 28-08-2020 01:15:00 16.6 C 83 % 13.7 C
17 28-08-2020 01:20:00 16.6 C 83 % 13.7 C
18 28-08-2020 01:25:00 16.7 C 82 % 13.61 C
19 28-08-2020 01:30:00 16.7 C 82 % 13.61 C
20 28-08-2020 01:35:00 16.7 C 83 % 13.8 C
21 28-08-2020 01:40:00 16.8 C 85 % 14.26 C
22 28-08-2020 01:45:00 16.8 C 86 % 14.45 C
23 28-08-2020 01:50:00 16.7 C 87 % 14.53 C
24 28-08-2020 01:55:00 16.7 C 88 % 14.7 C
25 28-08-2020 02:00:00 16.6 C 89 % 14.78 C
Sensor: Nr:Datum:Temp:Feuchte:Taupunkt:
Aussen-T/F 26 28-08-2020 02:05:00 16.6 C 89 % 14.78 C
27 28-08-2020 02:10:00 16.5 C 90 % 14.85 C
28 28-08-2020 02:15:00 16.5 C 90 % 14.85 C
29 28-08-2020 02:20:00 16.4 C 90 % 14.76 C
30 28-08-2020 02:25:00 16.5 C 91 % 15.03 C
31 28-08-2020 02:30:00 16.4 C 91 % 14.93 C
32 28-08-2020 02:35:00 16.4 C 91 % 14.93 C
33 28-08-2020 02:40:00 16.4 C 92 % 15.1 C
34 28-08-2020 02:45:00 16.3 C 92 % 15 C
35 28-08-2020 02:50:00 16.3 C 92 % 15 C
36 28-08-2020 02:55:00 16.2 C 92 % 14.9 C
37 28-08-2020 03:00:00 16.2 C 92 % 14.9 C
38 28-08-2020 03:05:00 16.1 C 92 % 14.8 C
39 28-08-2020 03:10:00 16 C 92 % 14.7 C
40 28-08-2020 03:15:00 15.9 C 92 % 14.6 C
41 28-08-2020 03:20:00 15.9 C 92 % 14.6 C
42 28-08-2020 03:25:00 15.9 C 93 % 14.77 C
43 28-08-2020 03:30:00 15.8 C 93 % 14.67 C
44 28-08-2020 03:35:00 15.8 C 93 % 14.67 C
45 28-08-2020 03:40:00 15.8 C 93 % 14.67 C
46 28-08-2020 03:45:00 15.8 C 93 % 14.67 C
47 28-08-2020 03:50:00 15.8 C 93 % 14.67 C
48 28-08-2020 03:55:00 15.8 C 93 % 14.67 C
49 28-08-2020 04:00:00 15.8 C 94 % 14.84 C
50 28-08-2020 04:05:00 15.7 C 94 % 14.74 C
Sensor: Nr:Datum:Temp:Feuchte:Taupunkt:
Aussen-T/F 51 28-08-2020 04:10:00 15.7 C 94 % 14.74 C
52 28-08-2020 04:15:00 15.7 C 94 % 14.74 C
53 28-08-2020 04:20:00 15.7 C 94 % 14.74 C
54 28-08-2020 04:25:00 15.7 C 94 % 14.74 C
55 28-08-2020 04:30:00 15.7 C 94 % 14.74 C
56 28-08-2020 04:35:00 15.8 C 94 % 14.84 C
57 28-08-2020 04:40:00 15.8 C 94 % 14.84 C
58 28-08-2020 04:45:00 15.7 C 94 % 14.74 C
59 28-08-2020 04:50:00 15.7 C 95 % 14.9 C
60 28-08-2020 04:55:00 15.7 C 95 % 14.9 C
61 28-08-2020 05:00:00 15.7 C 95 % 14.9 C
62 28-08-2020 05:05:00 15.8 C 95 % 15 C
63 28-08-2020 05:10:00 15.8 C 95 % 15 C
64 28-08-2020 05:15:00 15.8 C 95 % 15 C
65 28-08-2020 05:20:00 15.7 C 95 % 14.9 C
66 28-08-2020 05:25:00 15.7 C 95 % 14.9 C
67 28-08-2020 05:30:00 15.7 C 95 % 14.9 C
68 28-08-2020 05:35:00 15.6 C 95 % 14.8 C
69 28-08-2020 05:40:00 15.6 C 95 % 14.8 C
70 28-08-2020 05:45:00 15.5 C 95 % 14.7 C
71 28-08-2020 05:50:00 15.5 C 95 % 14.7 C
72 28-08-2020 05:55:00 15.4 C 95 % 14.6 C
73 28-08-2020 06:00:00 15.4 C 95 % 14.6 C
74 28-08-2020 06:05:00 15.4 C 95 % 14.6 C
75 28-08-2020 06:10:00 15.4 C 95 % 14.6 C
Sensor: Nr:Datum:Temp:Feuchte:Taupunkt:
Aussen-T/F 76 28-08-2020 06:15:00 15.5 C 95 % 14.7 C
77 28-08-2020 06:20:00 15.5 C 95 % 14.7 C
78 28-08-2020 06:25:00 15.6 C 95 % 14.8 C
79 28-08-2020 06:30:00 15.6 C 95 % 14.8 C
80 28-08-2020 06:35:00 15.6 C 95 % 14.8 C
81 28-08-2020 06:40:00 15.6 C 95 % 14.8 C
82 28-08-2020 06:45:00 15.6 C 95 % 14.8 C
83 28-08-2020 06:50:00 15.6 C 95 % 14.8 C
84 28-08-2020 06:55:00 15.5 C 95 % 14.7 C
85 28-08-2020 07:00:00 15.5 C 95 % 14.7 C
86 28-08-2020 07:05:00 15.5 C 95 % 14.7 C
87 28-08-2020 07:10:00 15.5 C 95 % 14.7 C
88 28-08-2020 07:15:00 15.5 C 95 % 14.7 C
89 28-08-2020 07:20:00 15.5 C 95 % 14.7 C
90 28-08-2020 07:25:00 15.5 C 95 % 14.7 C
91 28-08-2020 07:30:00 15.5 C 95 % 14.7 C
92 28-08-2020 07:35:00 15.6 C 95 % 14.8 C
93 28-08-2020 07:40:00 15.6 C 95 % 14.8 C
94 28-08-2020 07:45:00 15.7 C 95 % 14.9 C
95 28-08-2020 07:50:00 15.7 C 95 % 14.9 C
96 28-08-2020 07:55:00 15.7 C 95 % 14.9 C
97 28-08-2020 08:00:00 15.8 C 96 % 15.16 C
98 28-08-2020 08:05:00 15.8 C 96 % 15.16 C
99 28-08-2020 08:10:00 15.9 C 96 % 15.26 C
100 28-08-2020 08:15:00 15.9 C 96 % 15.26 C
Sensor: Nr:Datum:Temp:Feuchte:Taupunkt:
Aussen-T/F 101 28-08-2020 08:20:00 15.9 C 96 % 15.26 C
102 28-08-2020 08:25:00 16.1 C 95 % 15.3 C
103 28-08-2020 08:30:00 16.1 C 95 % 15.3 C
104 28-08-2020 08:35:00 16.1 C 95 % 15.3 C
105 28-08-2020 08:40:00 16.1 C 95 % 15.3 C
106 28-08-2020 08:45:00 16 C 94 % 15.03 C
107 28-08-2020 08:50:00 16.1 C 93 % 14.97 C
108 28-08-2020 08:55:00 16.1 C 93 % 14.97 C
109 28-08-2020 09:00:00 16.2 C 93 % 15.07 C
110 28-08-2020 09:05:00 16.3 C 93 % 15.17 C
111 28-08-2020 09:10:00 16.4 C 92 % 15.1 C
112 28-08-2020 09:15:00 16.4 C 90 % 14.76 C
113 28-08-2020 09:20:00 16.6 C 90 % 14.95 C
114 28-08-2020 09:25:00 16.7 C 89 % 14.88 C
115 28-08-2020 09:30:00 16.9 C 89 % 15.08 C
116 28-08-2020 09:35:00 17 C 90 % 15.35 C
117 28-08-2020 09:40:00 17.1 C 87 % 14.92 C
118 28-08-2020 09:45:00 17.1 C 84 % 14.38 C
119 28-08-2020 09:50:00 17.3 C 86 % 14.94 C
120 28-08-2020 09:55:00 17.4 C 87 % 15.21 C
121 28-08-2020 10:00:00 17.6 C 86 % 15.23 C
122 28-08-2020 10:05:00 17.7 C 84 % 14.96 C
123 28-08-2020 10:10:00 17.8 C 81 % 14.5 C
124 28-08-2020 10:15:00 18 C 79 % 14.31 C
125 28-08-2020 10:20:00 18.3 C 79 % 14.6 C
Sensor: Nr:Datum:Temp:Feuchte:Taupunkt:
Aussen-T/F 126 28-08-2020 10:25:00 18.5 C 77 % 14.39 C
127 28-08-2020 10:30:00 18.7 C 75 % 14.18 C
128 28-08-2020 10:35:00 18.8 C 74 % 14.07 C
129 28-08-2020 10:40:00 19 C 74 % 14.26 C
130 28-08-2020 10:45:00 19.2 C 74 % 14.46 C
131 28-08-2020 10:50:00 19.3 C 72 % 14.13 C
132 28-08-2020 10:55:00 19.3 C 72 % 14.13 C
133 28-08-2020 11:00:00 19.4 C 72 % 14.22 C
134 28-08-2020 11:05:00 19.6 C 70 % 13.98 C
135 28-08-2020 11:10:00 19.7 C 70 % 14.08 C
136 28-08-2020 11:15:00 19.8 C 69 % 13.95 C
137 28-08-2020 11:20:00 19.7 C 69 % 13.86 C
138 28-08-2020 11:25:00 19.7 C 70 % 14.08 C
139 28-08-2020 11:30:00 19.8 C 70 % 14.17 C
140 28-08-2020 11:35:00 20 C 70 % 14.36 C
141 28-08-2020 11:40:00 20.2 C 68 % 14.11 C
142 28-08-2020 11:45:00 20.3 C 68 % 14.2 C
143 28-08-2020 11:50:00 20.6 C 66 % 14.03 C
144 28-08-2020 11:55:00 20.7 C 68 % 14.58 C
145 28-08-2020 12:00:00 20.8 C 67 % 14.45 C
146 28-08-2020 12:05:00 20.8 C 67 % 14.45 C
147 28-08-2020 12:10:00 20.9 C 65 % 14.08 C
148 28-08-2020 12:15:00 20.8 C 65 % 13.98 C
149 28-08-2020 12:20:00 20.7 C 65 % 13.89 C
150 28-08-2020 12:25:00 20.7 C 66 % 14.12 C
Sensor: Nr:Datum:Temp:Feuchte:Taupunkt:
Aussen-T/F 151 28-08-2020 12:30:00 20.7 C 67 % 14.36 C
152 28-08-2020 12:35:00 20.6 C 67 % 14.26 C
153 28-08-2020 12:40:00 20.4 C 66 % 13.84 C
154 28-08-2020 12:45:00 20.4 C 67 % 14.07 C
155 28-08-2020 12:50:00 20.4 C 67 % 14.07 C
156 28-08-2020 12:55:00 20.4 C 65 % 13.6 C
157 28-08-2020 13:00:00 20.4 C 65 % 13.6 C
158 28-08-2020 13:05:00 20.4 C 64 % 13.37 C
159 28-08-2020 13:10:00 20.5 C 64 % 13.46 C
160 28-08-2020 13:15:00 20.4 C 64 % 13.37 C
161 28-08-2020 13:20:00 20.4 C 65 % 13.6 C
162 28-08-2020 13:25:00 20.3 C 64 % 13.27 C
163 28-08-2020 13:30:00 20.3 C 65 % 13.51 C
164 28-08-2020 13:35:00 20.3 C 66 % 13.74 C
165 28-08-2020 13:40:00 20.4 C 66 % 13.84 C
166 28-08-2020 13:45:00 20.5 C 66 % 13.93 C
167 28-08-2020 13:50:00 20.5 C 67 % 14.16 C
168 28-08-2020 13:55:00 20.5 C 65 % 13.7 C
169 28-08-2020 14:00:00 20.6 C 65 % 13.79 C
170 28-08-2020 14:05:00 20.7 C 65 % 13.89 C
171 28-08-2020 14:10:00 20.7 C 64 % 13.65 C
172 28-08-2020 14:15:00 20.8 C 64 % 13.74 C
173 28-08-2020 14:20:00 20.8 C 64 % 13.74 C
174 28-08-2020 14:25:00 20.8 C 64 % 13.74 C
175 28-08-2020 14:30:00 20.9 C 65 % 14.08 C
Sensor: Nr:Datum:Temp:Feuchte:Taupunkt:
Aussen-T/F 176 28-08-2020 14:35:00 20.9 C 64 % 13.84 C
177 28-08-2020 14:40:00 21 C 64 % 13.93 C
178 28-08-2020 14:45:00 21.1 C 64 % 14.03 C
179 28-08-2020 14:50:00 21.1 C 65 % 14.27 C
180 28-08-2020 14:55:00 21.1 C 63 % 13.79 C
181 28-08-2020 15:00:00 21 C 66 % 14.41 C
182 28-08-2020 15:05:00 21.1 C 65 % 14.27 C
183 28-08-2020 15:10:00 21.2 C 63 % 13.88 C
184 28-08-2020 15:15:00 21.3 C 62 % 13.73 C
185 28-08-2020 15:20:00 21.3 C 63 % 13.97 C
186 28-08-2020 15:25:00 21.3 C 61 % 13.48 C
187 28-08-2020 15:30:00 21.4 C 63 % 14.07 C
188 28-08-2020 15:35:00 21.4 C 62 % 13.82 C
189 28-08-2020 15:40:00 21.6 C 61 % 13.76 C
190 28-08-2020 15:45:00 21.6 C 60 % 13.51 C
191 28-08-2020 15:50:00 21.7 C 62 % 14.1 C
192 28-08-2020 15:55:00 21.7 C 62 % 14.1 C
193 28-08-2020 16:00:00 21.5 C 62 % 13.92 C
194 28-08-2020 16:05:00 21.4 C 62 % 13.82 C
195 28-08-2020 16:10:00 21.4 C 63 % 14.07 C
196 28-08-2020 16:15:00 21.4 C 63 % 14.07 C
197 28-08-2020 16:20:00 21.6 C 63 % 14.26 C
198 28-08-2020 16:25:00 21.6 C 63 % 14.26 C
199 28-08-2020 16:30:00 21.6 C 64 % 14.5 C
200 28-08-2020 16:35:00 21.7 C 63 % 14.35 C
Sensor: Nr:Datum:Temp:Feuchte:Taupunkt:
Aussen-T/F 201 28-08-2020 16:40:00 21.8 C 61 % 13.95 C
202 28-08-2020 16:45:00 21.9 C 63 % 14.54 C
203 28-08-2020 16:50:00 22.3 C 61 % 14.42 C
204 28-08-2020 16:55:00 22.6 C 60 % 14.44 C
205 28-08-2020 17:00:00 22.7 C 59 % 14.28 C
206 28-08-2020 17:05:00 22.8 C 59 % 14.37 C
207 28-08-2020 17:10:00 22.6 C 57 % 13.65 C
208 28-08-2020 17:15:00 22.4 C 59 % 14 C
209 28-08-2020 17:20:00 22.4 C 59 % 14 C
210 28-08-2020 17:25:00 22.4 C 58 % 13.73 C
211 28-08-2020 17:30:00 22.4 C 58 % 13.73 C
212 28-08-2020 17:35:00 22.4 C 55 % 12.92 C
213 28-08-2020 17:40:00 22.3 C 56 % 13.1 C
214 28-08-2020 17:45:00 22.2 C 57 % 13.28 C
215 28-08-2020 17:50:00 22.2 C 57 % 13.28 C
216 28-08-2020 17:55:00 22.3 C 57 % 13.37 C
217 28-08-2020 18:00:00 22.6 C 56 % 13.38 C
218 28-08-2020 18:05:00 22.6 C 53 % 12.54 C
219 28-08-2020 18:10:00 22.3 C 53 % 12.26 C
220 28-08-2020 18:15:00 22 C 53 % 11.99 C
221 28-08-2020 18:20:00 21.7 C 54 % 11.99 C
222 28-08-2020 18:25:00 21.5 C 55 % 12.08 C
223 28-08-2020 18:30:00 21.3 C 55 % 11.9 C
224 28-08-2020 18:35:00 21.2 C 57 % 12.35 C
225 28-08-2020 18:40:00 21 C 56 % 11.89 C
Sensor: Nr:Datum:Temp:Feuchte:Taupunkt:
Aussen-T/F 226 28-08-2020 18:45:00 20.8 C 56 % 11.71 C
227 28-08-2020 18:50:00 20.7 C 57 % 11.88 C
228 28-08-2020 18:55:00 20.6 C 57 % 11.79 C
229 28-08-2020 19:00:00 20.4 C 56 % 11.33 C
230 28-08-2020 19:05:00 20.3 C 55 % 10.97 C
231 28-08-2020 19:10:00 20.3 C 55 % 10.97 C
232 28-08-2020 19:15:00 20.2 C 54 % 10.6 C
233 28-08-2020 19:20:00 20.2 C 55 % 10.88 C
234 28-08-2020 19:25:00 20.2 C 55 % 10.88 C
235 28-08-2020 19:30:00 20.3 C 56 % 11.24 C
236 28-08-2020 19:35:00 20.4 C 55 % 11.06 C
237 28-08-2020 19:40:00 20.5 C 54 % 10.88 C
238 28-08-2020 19:45:00 20.6 C 54 % 10.97 C
239 28-08-2020 19:50:00 20.6 C 56 % 11.52 C
240 28-08-2020 19:55:00 20.4 C 58 % 11.86 C
241 28-08-2020 20:00:00 20.2 C 58 % 11.68 C
242 28-08-2020 20:05:00 20 C 57 % 11.23 C
243 28-08-2020 20:10:00 19.8 C 60 % 11.82 C
244 28-08-2020 20:15:00 19.7 C 59 % 11.47 C
245 28-08-2020 20:20:00 19.6 C 62 % 12.13 C
246 28-08-2020 20:25:00 19.3 C 62 % 11.84 C
247 28-08-2020 20:30:00 19.2 C 60 % 11.25 C
248 28-08-2020 20:35:00 18.7 C 63 % 11.52 C
249 28-08-2020 20:40:00 18.1 C 66 % 11.65 C
250 28-08-2020 20:45:00 17.3 C 69 % 11.56 C
Sensor: Nr:Datum:Temp:Feuchte:Taupunkt:
Aussen-T/F 251 28-08-2020 20:50:00 16.7 C 73 % 11.84 C
252 28-08-2020 20:55:00 16.4 C 76 % 12.16 C
253 28-08-2020 21:00:00 16.1 C 78 % 12.27 C
254 28-08-2020 21:05:00 15.8 C 80 % 12.36 C
255 28-08-2020 21:10:00 15.5 C 81 % 12.26 C
256 28-08-2020 21:15:00 15.3 C 82 % 12.25 C
257 28-08-2020 21:20:00 15.1 C 83 % 12.24 C
258 28-08-2020 21:25:00 14.9 C 84 % 12.22 C
259 28-08-2020 21:30:00 14.8 C 85 % 12.3 C
260 28-08-2020 21:35:00 14.6 C 85 % 12.11 C
261 28-08-2020 21:40:00 14.5 C 85 % 12.01 C
262 28-08-2020 21:45:00 14.4 C 85 % 11.91 C
263 28-08-2020 21:50:00 14.4 C 85 % 11.91 C
264 28-08-2020 21:55:00 14.3 C 85 % 11.81 C
265 28-08-2020 22:00:00 14.1 C 86 % 11.8 C
266 28-08-2020 22:05:00 13.9 C 86 % 11.6 C
267 28-08-2020 22:10:00 13.8 C 87 % 11.68 C
268 28-08-2020 22:15:00 13.7 C 87 % 11.58 C
269 28-08-2020 22:20:00 13.6 C 88 % 11.65 C
270 28-08-2020 22:25:00 13.6 C 88 % 11.65 C
271 28-08-2020 22:30:00 13.6 C 88 % 11.65 C
272 28-08-2020 22:35:00 13.5 C 88 % 11.55 C
273 28-08-2020 22:40:00 13.5 C 88 % 11.55 C
274 28-08-2020 22:45:00 13.4 C 88 % 11.45 C
275 28-08-2020 22:50:00 13.4 C 88 % 11.45 C
Sensor: Nr:Datum:Temp:Feuchte:Taupunkt:
Aussen-T/F 276 28-08-2020 22:55:00 13.4 C 89 % 11.63 C
277 28-08-2020 23:00:00 13.4 C 89 % 11.63 C
278 28-08-2020 23:05:00 13.3 C 89 % 11.53 C
279 28-08-2020 23:10:00 13.3 C 89 % 11.53 C
280 28-08-2020 23:15:00 13.2 C 89 % 11.43 C
281 28-08-2020 23:20:00 13.1 C 89 % 11.33 C
282 28-08-2020 23:25:00 12.9 C 89 % 11.13 C
283 28-08-2020 23:30:00 12.8 C 89 % 11.03 C
284 28-08-2020 23:35:00 12.8 C 89 % 11.03 C
285 28-08-2020 23:40:00 12.7 C 90 % 11.1 C
286 28-08-2020 23:45:00 12.7 C 90 % 11.1 C
287 28-08-2020 23:50:00 12.6 C 90 % 11 C
288 28-08-2020 23:55:00 12.6 C 90 % 11 C

Legende:
   Min
   Max


Maximal/Minimal-Werte vom 28.08.2020 - 28.08.2020

Sensor Min Max Avg
Temp
(Aussen-T/F)
12.6 °C
28-08-2020  23:50:00
22.8 °C
28-08-2020  17:05:00
17.87 °C
Feuchte
(Aussen-T/F)
53 %
28-08-2020  18:05:00
96 %
28-08-2020  08:00:00
78.01 %
Taupunkt
(Aussen-T/F)
10.6 C
28-08-2020  19:15:00
15.35 C
28-08-2020  09:35:00
13.63 C

Die Daten stammen von einer Davis Vantage Pro 2 Wetter-Station und werden unter Linux mit der Software wview2wettercgi und aufbereitet. Alle Angaben erfolgen ohne Gewähr für ihre Vollständigkeit oder Richtigkeit.
Kontakt: Rainer Krienke krienke@uni-koblenz.de . Meine Webseiten an der Uni Koblenz oder privat.
Version: $Revision: 0.78 $